KRST/RST METAR and TAF weather

Enter ICAO airport designator
Station Type Date Time Source
KRST METAR 2019/08/24 06:54 UTC NOAA

KRST 240654Z AUTO 15005KT 10SM CLR 14/12 A3026 RMK AO2 SLP243 T01390117


Station Type Date Time Source
KRST Decoded METAR 2019/08/24 06:54 UTC NOAA

Station name not available
Aug 24, 2019 - 02:54 AM EDT / 2019.08.24 0654 UTC
Wind: from the SSE (150 degrees) at 6 MPH (5 KT):0
Visibility: 10 mile(s):0
Sky conditions: clear
Temperature: 57.0 F (13.9 C)
Dew Point: 53.1 F (11.7 C)
Relative Humidity: 86%
Pressure (altimeter): 30.26 in. Hg (1024 hPa)
ob: KRST 240654Z AUTO 15005KT 10SM CLR 14/12 A3026 RMK AO2 SLP243 T01390117
cycle: 7

Station Type Date Time Source
KRST TAF 2019/08/24 06:22 UTC NOAA

TAF KRST 240520Z 2406/2506 13007KT P6SM SCT040

Example: see airport list